金門航空站 - ATIS

METAR RCBS 010530Z 18009KT 9000 FEW018 FEW020CB SCT150 32/27 Q1003 NOSIG RMK 18009KT/R06 CB NW A2964(I)=

站台狀態:Online
最後更新:2018-08-15 05:45:01